createdAt,value
2023-02-24T00:00:34.004Z,10.00
2023-02-24T00:03:06.260Z,9.48
2023-02-24T00:05:36.841Z,9.93
2023-02-24T00:08:05.252Z,9.65
2023-02-24T00:10:33.982Z,8.68
2023-02-24T00:13:02.308Z,8.65
2023-02-24T00:15:30.645Z,9.45
2023-02-24T00:17:59.263Z,10.55
2023-02-24T00:20:29.134Z,9.60
2023-02-24T00:22:57.604Z,9.43
2023-02-24T00:25:26.025Z,9.23
2023-02-24T00:27:55.485Z,10.05
2023-02-24T00:30:27.771Z,10.40
2023-02-24T00:33:01.159Z,10.70
2023-02-24T00:35:31.364Z,9.88
2023-02-24T00:37:59.804Z,9.93
2023-02-24T00:40:30.281Z,9.35
2023-02-24T00:42:59.113Z,9.05
2023-02-24T00:45:30.660Z,9.98
2023-02-24T00:47:59.251Z,9.68
2023-02-24T00:50:27.740Z,8.80
2023-02-24T00:52:57.429Z,9.63
2023-02-24T00:55:27.697Z,8.73
2023-02-24T00:57:56.342Z,9.50
2023-02-24T01:00:25.204Z,9.38
2023-02-24T01:02:53.721Z,9.20
2023-02-24T01:05:22.096Z,8.55
2023-02-24T01:07:51.999Z,8.27
2023-02-24T01:10:23.429Z,8.50
2023-02-24T01:12:50.881Z,8.00
2023-02-24T01:15:22.200Z,8.13
2023-02-24T01:17:50.748Z,6.95
2023-02-24T01:20:19.571Z,7.93
2023-02-24T01:22:50.028Z,6.45
2023-02-24T01:25:20.207Z,6.25
2023-02-24T01:27:50.528Z,6.35
2023-02-24T01:30:19.059Z,5.70
2023-02-24T01:32:48.298Z,5.20
2023-02-24T01:35:17.802Z,5.40
2023-02-24T01:37:46.330Z,5.18
2023-02-24T01:40:21.473Z,4.65
2023-02-24T01:42:52.133Z,4.57
2023-02-24T01:45:26.454Z,6.72
2023-02-24T01:47:59.871Z,5.80
2023-02-24T01:50:29.798Z,5.82
2023-02-24T01:53:02.224Z,5.45
2023-02-24T01:55:34.220Z,6.05
2023-02-24T01:58:11.408Z,6.20
2023-02-24T02:00:45.230Z,6.45
2023-02-24T02:03:25.193Z,7.05
2023-02-24T02:05:56.078Z,6.35
2023-02-24T02:08:25.364Z,6.85
2023-02-24T02:10:58.755Z,6.35
2023-02-24T02:13:30.102Z,7.00
2023-02-24T02:16:10.783Z,6.82
2023-02-24T02:18:50.033Z,5.30
2023-02-24T02:22:00.509Z,5.45
2023-02-24T02:24:38.819Z,5.60
2023-02-24T02:27:42.620Z,5.55
2023-02-24T02:30:25.288Z,5.45
2023-02-24T02:33:21.363Z,5.35
2023-02-24T02:36:00.561Z,6.07
2023-02-24T02:38:35.406Z,6.70
2023-02-24T02:41:12.160Z,5.72
2023-02-24T02:43:48.838Z,6.15
2023-02-24T02:46:34.533Z,5.25
2023-02-24T02:49:12.785Z,4.80
2023-02-24T02:51:51.560Z,4.90
2023-02-24T02:54:28.084Z,4.82
2023-02-24T02:57:05.104Z,4.80
2023-02-24T02:59:38.337Z,4.80
2023-02-24T03:02:14.997Z,4.47
2023-02-24T03:04:51.157Z,4.60
2023-02-24T03:07:24.619Z,4.82
2023-02-24T03:09:58.251Z,4.15
2023-02-24T03:12:32.296Z,4.10
2023-02-24T03:15:04.536Z,4.00
2023-02-24T03:17:42.329Z,4.38
2023-02-24T03:20:17.461Z,4.45
2023-02-24T03:22:53.156Z,4.32
2023-02-24T03:28:01.010Z,4.55
2023-02-24T03:30:40.956Z,4.07
2023-02-24T03:33:19.931Z,4.68
2023-02-24T03:35:51.316Z,4.47
2023-02-24T03:38:24.309Z,4.00
2023-02-24T03:40:53.401Z,3.83
2023-02-24T03:43:31.088Z,4.47
2023-02-24T03:46:01.673Z,4.00
2023-02-24T03:48:32.900Z,4.68
2023-02-24T03:51:03.998Z,4.10
2023-02-24T03:54:02.674Z,4.15
2023-02-24T03:56:46.737Z,4.65
2023-02-24T03:59:30.385Z,3.90
2023-02-24T04:02:06.374Z,4.10
2023-02-24T04:04:47.114Z,4.15
2023-02-24T04:07:32.344Z,3.75
2023-02-24T04:10:09.710Z,4.28
2023-02-24T04:12:46.862Z,4.30
2023-02-24T04:15:22.655Z,4.20
2023-02-24T04:17:54.658Z,4.00
2023-02-24T04:20:30.284Z,3.92
2023-02-24T04:23:08.544Z,3.95
2023-02-24T04:25:43.376Z,3.92
2023-02-24T04:28:14.449Z,3.72
2023-02-24T04:30:49.287Z,3.40
2023-02-24T04:33:18.131Z,3.65
2023-02-24T04:35:47.455Z,3.60
2023-02-24T04:38:16.113Z,3.28
2023-02-24T04:40:46.058Z,3.47
2023-02-24T04:43:15.559Z,3.15
2023-02-24T04:45:44.213Z,3.30
2023-02-24T04:48:13.782Z,2.67
2023-02-24T04:50:44.877Z,3.00
2023-02-24T04:53:15.164Z,2.85
2023-02-24T04:55:48.637Z,2.90
2023-02-24T04:58:20.519Z,3.10
2023-02-24T05:00:52.588Z,2.67
2023-02-24T05:03:22.697Z,2.38
2023-02-24T05:05:53.142Z,2.53
2023-02-24T05:08:21.511Z,2.75
2023-02-24T05:10:52.310Z,2.70
2023-02-24T05:13:25.295Z,3.65
2023-02-24T05:15:54.571Z,2.42
2023-02-24T05:18:23.825Z,2.83
2023-02-24T05:21:11.825Z,2.95
2023-02-24T05:23:44.162Z,2.85
2023-02-24T05:26:16.876Z,2.67
2023-02-24T05:28:48.976Z,3.10
2023-02-24T05:31:20.543Z,3.40
2023-02-24T05:33:50.666Z,3.13
2023-02-24T05:36:20.296Z,3.25
2023-02-24T05:38:56.594Z,2.97
2023-02-24T05:41:32.468Z,3.58
2023-02-24T05:44:04.686Z,2.80
2023-02-24T05:46:35.002Z,3.40
2023-02-24T05:49:08.805Z,3.17
2023-02-24T05:51:39.140Z,2.90
2023-02-24T05:54:09.406Z,3.17
2023-02-24T05:56:42.216Z,3.33
2023-02-24T05:59:12.340Z,2.72
2023-02-24T06:01:43.103Z,2.80
2023-02-24T06:04:20.710Z,3.08
2023-02-24T06:06:54.637Z,2.33
2023-02-24T06:09:24.053Z,3.00
2023-02-24T06:11:53.892Z,2.80
2023-02-24T06:14:22.347Z,2.90
2023-02-24T06:16:50.958Z,3.20
2023-02-24T06:19:20.620Z,2.63
2023-02-24T06:21:49.412Z,2.75
2023-02-24T06:24:18.518Z,3.10
2023-02-24T06:26:49.174Z,3.85
2023-02-24T06:29:19.216Z,3.03
2023-02-24T06:31:49.372Z,3.33
2023-02-24T06:34:18.222Z,2.60
2023-02-24T06:36:48.873Z,3.00
2023-02-24T06:39:17.242Z,3.22
2023-02-24T06:41:46.062Z,2.78
2023-02-24T06:44:14.435Z,2.60
2023-02-24T06:46:46.067Z,2.50
2023-02-24T06:49:14.505Z,2.90
2023-02-24T06:51:43.442Z,2.47
2023-02-24T06:54:12.630Z,2.42
2023-02-24T06:56:41.753Z,2.50
2023-02-24T06:59:12.988Z,2.47
2023-02-24T07:01:45.113Z,2.30
2023-02-24T07:04:21.162Z,2.50
2023-02-24T07:06:52.306Z,2.58
2023-02-24T07:09:24.381Z,2.50
2023-02-24T07:11:55.821Z,2.38
2023-02-24T07:14:26.897Z,3.28
2023-02-24T07:16:55.547Z,2.40
2023-02-24T07:19:26.925Z,2.70
2023-02-24T07:21:59.956Z,2.05
2023-02-24T07:24:35.747Z,2.28
2023-02-24T07:27:06.235Z,1.95
2023-02-24T07:29:37.570Z,2.22
2023-02-24T07:32:08.506Z,2.60
2023-02-24T07:34:40.253Z,2.17
2023-02-24T07:37:09.929Z,2.30
2023-02-24T07:39:39.594Z,2.45
2023-02-24T07:42:10.145Z,1.90
2023-02-24T07:44:48.972Z,1.92
2023-02-24T07:47:17.480Z,2.15
2023-02-24T07:49:47.200Z,2.30
2023-02-24T07:52:16.022Z,2.00
2023-02-24T07:54:44.423Z,2.22
2023-02-24T07:57:13.543Z,2.10
2023-02-24T07:59:46.679Z,2.50
2023-02-24T08:02:15.352Z,2.42
2023-02-24T08:04:49.735Z,2.28
2023-02-24T08:07:24.158Z,2.80
2023-02-24T08:10:14.051Z,2.50
2023-02-24T08:12:43.630Z,2.50
2023-02-24T08:15:24.551Z,2.28
2023-02-24T08:17:58.406Z,2.33
2023-02-24T08:20:29.569Z,1.80
2023-02-24T08:23:00.670Z,2.47
2023-02-24T08:25:36.490Z,2.47
2023-02-24T08:28:11.130Z,2.20
2023-02-24T08:30:45.052Z,2.30
2023-02-24T08:33:18.937Z,2.75
2023-02-24T08:35:52.668Z,2.78
2023-02-24T08:38:26.440Z,2.45
2023-02-24T08:40:58.501Z,2.83
2023-02-24T08:43:34.928Z,2.50
2023-02-24T08:46:18.249Z,2.80
2023-02-24T08:48:49.194Z,3.00
2023-02-24T08:51:22.783Z,2.75
2023-02-24T08:53:55.660Z,2.75
2023-02-24T08:56:26.755Z,3.13
2023-02-24T08:58:58.031Z,3.15
2023-02-24T09:01:34.461Z,2.58
2023-02-24T09:04:05.437Z,2.40
2023-02-24T09:06:43.744Z,2.60
2023-02-24T09:09:22.366Z,3.22
2023-02-24T09:11:55.847Z,3.60
2023-02-24T09:14:28.595Z,3.35
2023-02-24T09:17:11.163Z,3.70
2023-02-24T09:20:01.853Z,3.70
2023-02-24T09:22:32.513Z,4.50
2023-02-24T09:25:21.585Z,4.07
2023-02-24T09:27:56.276Z,3.35
2023-02-24T09:30:37.215Z,3.47
2023-02-24T09:33:22.239Z,2.80
2023-02-24T09:35:53.658Z,2.90
2023-02-24T09:38:45.062Z,2.97
2023-02-24T09:41:31.711Z,2.85
2023-02-24T09:44:07.283Z,2.42
2023-02-24T09:46:42.206Z,2.65
2023-02-24T09:49:17.524Z,2.97
2023-02-24T09:51:53.275Z,2.80
2023-02-24T09:54:24.529Z,2.80
2023-02-24T09:57:08.245Z,2.50
2023-02-24T10:00:00.806Z,2.17
2023-02-24T10:02:44.881Z,2.78
2023-02-24T10:05:26.671Z,2.55
2023-02-24T10:07:57.023Z,2.40
2023-02-24T10:10:29.013Z,2.92
2023-02-24T10:13:13.249Z,2.47
2023-02-24T10:16:06.158Z,2.17
2023-02-24T10:18:43.967Z,2.13
2023-02-24T10:21:30.758Z,2.35
2023-02-24T10:24:08.534Z,2.30
2023-02-24T10:26:59.508Z,2.83
2023-02-24T10:29:44.579Z,2.65
2023-02-24T10:32:23.986Z,3.50
2023-02-24T10:34:53.085Z,2.63
2023-02-24T10:37:28.625Z,2.70
2023-02-24T10:39:59.910Z,3.13
2023-02-24T10:42:31.520Z,2.83
2023-02-24T10:45:18.484Z,2.65
2023-02-24T10:47:56.432Z,2.65
2023-02-24T10:50:32.112Z,3.00
2023-02-24T10:56:22.750Z,2.70
2023-02-24T10:59:20.484Z,3.08
2023-02-24T11:02:01.039Z,2.50
2023-02-24T11:04:53.923Z,2.80
2023-02-24T11:07:33.650Z,2.90
2023-02-24T11:10:13.671Z,3.45
2023-02-24T11:13:09.708Z,3.17
2023-02-24T11:16:02.642Z,3.05
2023-02-24T11:18:33.492Z,3.00
2023-02-24T11:21:04.212Z,2.78
2023-02-24T11:23:36.316Z,2.72
2023-02-24T11:26:12.928Z,2.88
2023-02-24T11:28:56.863Z,3.10
2023-02-24T11:31:43.497Z,2.70
2023-02-24T11:34:24.303Z,2.88
2023-02-24T11:37:04.144Z,3.30
2023-02-24T11:39:48.345Z,3.33
2023-02-24T11:42:22.188Z,3.30
2023-02-24T11:44:55.305Z,3.47
2023-02-24T11:47:29.921Z,3.00
2023-02-24T11:50:14.862Z,2.80
2023-02-24T11:52:47.059Z,3.50
2023-02-24T11:55:24.132Z,3.03
2023-02-24T11:57:55.937Z,3.50
2023-02-24T12:00:27.955Z,3.03
2023-02-24T12:03:06.470Z,3.33
2023-02-24T12:05:40.620Z,2.72
2023-02-24T12:08:17.134Z,3.30
2023-02-24T12:10:51.294Z,2.85
2023-02-24T12:13:28.871Z,2.60
2023-02-24T12:16:03.647Z,1.95
2023-02-24T12:18:35.215Z,2.13
2023-02-24T12:21:10.019Z,1.60
2023-02-24T12:23:41.795Z,2.30
2023-02-24T12:26:19.234Z,2.20
2023-02-24T12:29:05.091Z,1.98
2023-02-24T12:31:42.074Z,1.63
2023-02-24T12:34:16.086Z,2.53
2023-02-24T12:37:01.127Z,2.08
2023-02-24T12:39:31.987Z,1.88
2023-02-24T12:42:09.371Z,1.77
2023-02-24T12:44:46.659Z,2.03
2023-02-24T12:47:17.521Z,1.92
2023-02-24T12:49:57.412Z,1.20
2023-02-24T12:52:35.394Z,1.90
2023-02-24T12:55:12.307Z,2.00
2023-02-24T12:57:48.311Z,1.77
2023-02-24T13:00:22.137Z,2.17
2023-02-24T13:02:57.507Z,2.42
2023-02-24T13:05:32.199Z,1.98
2023-02-24T13:08:23.042Z,2.42
2023-02-24T13:11:03.576Z,2.78
2023-02-24T13:13:38.104Z,2.28
2023-02-24T13:16:06.564Z,2.78
2023-02-24T13:18:39.412Z,2.40
2023-02-24T13:21:19.166Z,2.63
2023-02-24T13:23:58.297Z,2.45
2023-02-24T13:26:28.846Z,2.90
2023-02-24T13:29:03.243Z,2.50
2023-02-24T13:31:43.728Z,2.33
2023-02-24T13:34:17.114Z,2.65
2023-02-24T13:36:50.232Z,2.35
2023-02-24T13:39:29.198Z,3.30
2023-02-24T13:42:21.394Z,2.60
2023-02-24T13:44:53.387Z,3.10
2023-02-24T13:48:04.024Z,2.75
2023-02-24T13:50:37.168Z,2.90
2023-02-24T13:53:23.711Z,3.15
2023-02-24T13:56:10.541Z,3.33
2023-02-24T13:58:55.646Z,2.63
2023-02-24T14:01:27.613Z,2.53
2023-02-24T14:04:06.901Z,2.75
2023-02-24T14:06:36.481Z,2.97
2023-02-24T14:09:07.345Z,2.40
2023-02-24T14:11:38.618Z,2.05
2023-02-24T14:14:07.257Z,2.13
2023-02-24T14:16:40.138Z,1.88
2023-02-24T14:19:16.176Z,2.75
2023-02-24T14:21:50.842Z,2.50
2023-02-24T14:24:20.028Z,2.60
2023-02-24T14:26:52.192Z,2.30
2023-02-24T14:29:25.529Z,2.33
2023-02-24T14:31:56.269Z,2.40
2023-02-24T14:34:26.692Z,2.00
2023-02-24T14:36:58.125Z,2.17
2023-02-24T14:39:29.458Z,2.75
2023-02-24T14:42:12.847Z,2.65
2023-02-24T14:44:44.053Z,2.25
2023-02-24T14:47:15.375Z,2.40
2023-02-24T14:49:53.775Z,2.38
2023-02-24T14:52:29.293Z,2.33
2023-02-24T14:55:01.503Z,2.83
2023-02-24T14:57:36.433Z,2.42
2023-02-24T15:00:21.908Z,2.28
2023-02-24T15:02:56.931Z,2.50
2023-02-24T15:05:25.818Z,2.38
2023-02-24T15:07:54.484Z,2.50
2023-02-24T15:10:25.917Z,2.70
2023-02-24T15:13:00.948Z,2.50
2023-02-24T15:15:31.624Z,2.92
2023-02-24T15:18:04.233Z,2.50
2023-02-24T15:20:35.000Z,2.38
2023-02-24T15:23:06.354Z,2.15
2023-02-24T15:25:44.473Z,2.60
2023-02-24T15:28:26.703Z,2.85
2023-02-24T15:31:04.542Z,2.80
2023-02-24T15:33:39.082Z,3.00
2023-02-24T15:36:12.173Z,3.03
2023-02-24T15:38:43.695Z,3.20
2023-02-24T15:41:13.264Z,3.10
2023-02-24T15:43:50.341Z,3.63
2023-02-24T15:46:25.958Z,3.33
2023-02-24T15:48:57.314Z,3.97
2023-02-24T15:51:35.352Z,3.90
2023-02-24T15:54:07.228Z,3.22
2023-02-24T15:56:36.657Z,4.00
2023-02-24T15:59:06.413Z,3.60
2023-02-24T16:01:35.270Z,4.20
2023-02-24T16:04:06.254Z,4.25
2023-02-24T16:06:35.998Z,3.60
2023-02-24T16:09:05.494Z,4.35
2023-02-24T16:11:39.680Z,4.13
2023-02-24T16:14:16.960Z,4.10
2023-02-24T16:16:45.918Z,4.03
2023-02-24T16:19:16.039Z,4.28
2023-02-24T16:21:44.904Z,4.95
2023-02-24T16:24:13.370Z,4.85
2023-02-24T16:26:45.731Z,5.35
2023-02-24T16:29:16.646Z,5.53
2023-02-24T16:31:45.357Z,5.35
2023-02-24T16:34:16.350Z,5.70
2023-02-24T16:36:45.318Z,5.65
2023-02-24T16:39:15.275Z,5.78
2023-02-24T16:41:43.598Z,6.45
2023-02-24T16:44:12.099Z,6.30
2023-02-24T16:46:45.265Z,6.50
2023-02-24T16:49:20.594Z,6.20
2023-02-24T16:51:49.050Z,6.45
2023-02-24T16:54:17.433Z,6.22
2023-02-24T16:56:46.650Z,7.03
2023-02-24T16:59:15.011Z,6.82
2023-02-24T17:01:44.775Z,7.63
2023-02-24T17:04:14.147Z,6.40
2023-02-24T17:06:42.853Z,7.53
2023-02-24T17:09:15.278Z,7.93
2023-02-24T17:11:43.765Z,7.70
2023-02-24T17:14:16.697Z,7.38
2023-02-24T17:16:46.591Z,7.57
2023-02-24T17:19:15.186Z,7.40
2023-02-24T17:21:45.355Z,7.10
2023-02-24T17:24:16.432Z,7.22
2023-02-24T17:26:45.182Z,7.45
2023-02-24T17:29:14.624Z,7.93
2023-02-24T17:31:43.242Z,7.95
2023-02-24T17:34:13.117Z,8.10
2023-02-24T17:36:41.577Z,8.52
2023-02-24T17:39:09.992Z,8.13
2023-02-24T17:41:38.300Z,7.72
2023-02-24T17:44:06.811Z,8.15
2023-02-24T17:46:35.243Z,7.85
2023-02-24T17:49:04.939Z,7.78
2023-02-24T17:51:34.865Z,8.13
2023-02-24T17:54:03.222Z,7.38
2023-02-24T17:56:31.647Z,7.35
2023-02-24T17:59:01.190Z,8.13
2023-02-24T18:01:30.135Z,8.02
2023-02-24T18:03:58.551Z,8.65
2023-02-24T18:06:26.970Z,8.60
2023-02-24T18:08:56.746Z,8.82
2023-02-24T18:11:25.176Z,8.60
2023-02-24T18:13:55.110Z,8.63
2023-02-24T18:16:23.910Z,8.63
2023-02-24T18:18:52.643Z,8.63
2023-02-24T18:21:21.160Z,8.30
2023-02-24T18:23:50.071Z,7.97
2023-02-24T18:26:21.922Z,8.20
2023-02-24T18:28:53.574Z,8.23
2023-02-24T18:31:25.201Z,8.57
2023-02-24T18:33:54.487Z,8.48
2023-02-24T18:36:23.129Z,9.25
2023-02-24T18:38:51.633Z,8.05
2023-02-24T18:41:23.484Z,8.50
2023-02-24T18:43:53.340Z,9.02
2023-02-24T18:46:23.296Z,9.18
2023-02-24T18:48:51.912Z,9.52
2023-02-24T18:51:23.606Z,9.18
2023-02-24T18:53:53.035Z,8.70
2023-02-24T18:56:25.031Z,8.52
2023-02-24T18:58:56.333Z,7.95
2023-02-24T19:01:27.945Z,8.55
2023-02-24T19:03:57.170Z,8.13
2023-02-24T19:06:29.308Z,7.65
2023-02-24T19:09:01.942Z,9.32
2023-02-24T19:11:31.725Z,9.13
2023-02-24T19:14:00.864Z,8.95
2023-02-24T19:16:29.850Z,7.78
2023-02-24T19:19:00.084Z,8.00
2023-02-24T19:21:31.093Z,8.05
2023-02-24T19:24:00.826Z,7.88
2023-02-24T19:26:29.418Z,8.80
2023-02-24T19:28:59.965Z,8.80
2023-02-24T19:31:30.370Z,8.57
2023-02-24T19:34:01.227Z,7.82
2023-02-24T19:36:31.434Z,7.65
2023-02-24T19:39:00.124Z,5.85
2023-02-24T19:41:28.613Z,6.00
2023-02-24T19:43:57.007Z,8.27
2023-02-24T19:46:27.224Z,7.80
2023-02-24T19:48:57.337Z,9.13
2023-02-24T19:51:26.589Z,7.75
2023-02-24T19:53:56.433Z,8.18
2023-02-24T19:56:25.805Z,6.18
2023-02-24T19:58:55.311Z,5.47
2023-02-24T20:01:24.973Z,4.50
2023-02-24T20:03:57.134Z,4.47
2023-02-24T20:06:28.487Z,3.90
2023-02-24T20:08:58.276Z,3.85
2023-02-24T20:11:28.653Z,4.40
2023-02-24T20:13:57.205Z,4.70
2023-02-24T20:16:27.197Z,5.18
2023-02-24T20:18:57.045Z,5.28
2023-02-24T20:21:26.262Z,5.45
2023-02-24T20:23:54.845Z,5.20
2023-02-24T20:26:23.506Z,5.00
2023-02-24T20:28:52.076Z,5.00
2023-02-24T20:31:20.741Z,5.13
2023-02-24T20:33:50.337Z,5.22
2023-02-24T20:36:23.224Z,4.80
2023-02-24T20:38:52.322Z,4.13
2023-02-24T20:41:22.476Z,3.33
2023-02-24T20:43:51.188Z,3.88
2023-02-24T20:46:24.048Z,3.75
2023-02-24T20:48:53.660Z,3.47
2023-02-24T20:51:27.838Z,3.28
2023-02-24T20:53:58.466Z,2.90
2023-02-24T20:56:28.013Z,2.30
2023-02-24T20:59:00.421Z,2.47
2023-02-24T21:01:30.263Z,3.10
2023-02-24T21:03:58.939Z,1.98
2023-02-24T21:06:29.623Z,2.15
2023-02-24T21:08:58.392Z,2.00
2023-02-24T21:11:29.672Z,2.30
2023-02-24T21:13:58.491Z,2.15
2023-02-24T21:16:28.194Z,2.28
2023-02-24T21:18:58.716Z,2.38
2023-02-24T21:21:28.625Z,2.13
2023-02-24T21:23:57.541Z,2.63
2023-02-24T21:26:26.987Z,3.33
2023-02-24T21:28:57.933Z,2.70
2023-02-24T21:31:27.638Z,2.90
2023-02-24T21:33:56.977Z,2.80
2023-02-24T21:36:27.609Z,2.83
2023-02-24T21:38:57.507Z,2.60
2023-02-24T21:41:25.929Z,2.65
2023-02-24T21:43:55.798Z,3.47
2023-02-24T21:46:28.006Z,2.83
2023-02-24T21:48:57.789Z,2.80
2023-02-24T21:51:27.808Z,2.92
2023-02-24T21:53:58.144Z,2.95
2023-02-24T21:56:28.700Z,2.92
2023-02-24T21:58:59.492Z,2.47
2023-02-24T22:01:30.034Z,3.45
2023-02-24T22:04:01.219Z,2.55
2023-02-24T22:06:32.024Z,2.90
2023-02-24T22:09:03.989Z,2.72
2023-02-24T22:11:35.173Z,2.35
2023-02-24T22:14:04.196Z,2.30
2023-02-24T22:16:32.852Z,2.72
2023-02-24T22:19:01.302Z,1.83
2023-02-24T22:21:30.806Z,2.47
2023-02-24T22:24:01.105Z,1.85
2023-02-24T22:26:31.825Z,2.10
2023-02-24T22:29:01.458Z,1.80
2023-02-24T22:31:32.298Z,1.70
2023-02-24T22:34:01.567Z,1.65
2023-02-24T22:36:33.348Z,1.95
2023-02-24T22:39:02.439Z,1.83
2023-02-24T22:41:34.779Z,1.92
2023-02-24T22:44:05.356Z,1.67
2023-02-24T22:46:35.883Z,1.92
2023-02-24T22:49:04.688Z,1.98
2023-02-24T22:51:33.188Z,2.00
2023-02-24T22:54:01.693Z,2.10
2023-02-24T22:56:32.391Z,2.25
2023-02-24T22:59:01.547Z,3.08
2023-02-24T23:01:31.991Z,2.80
2023-02-24T23:04:01.725Z,2.90
2023-02-24T23:06:30.815Z,3.50
2023-02-24T23:09:00.739Z,3.80
2023-02-24T23:11:33.114Z,3.08
2023-02-24T23:14:03.429Z,3.72
2023-02-24T23:16:35.348Z,4.03
2023-02-24T23:19:05.968Z,4.00
2023-02-24T23:21:37.856Z,4.15
2023-02-24T23:24:08.256Z,3.88
2023-02-24T23:26:41.831Z,3.67
2023-02-24T23:29:11.760Z,3.78
2023-02-24T23:31:42.071Z,3.58
2023-02-24T23:34:11.430Z,3.55
2023-02-24T23:36:43.387Z,3.30
2023-02-24T23:39:13.963Z,3.30
2023-02-24T23:41:43.964Z,3.38
2023-02-24T23:44:12.747Z,3.15
2023-02-24T23:46:41.733Z,3.13
2023-02-24T23:49:10.183Z,3.10
2023-02-24T23:51:47.989Z,3.33
2023-02-24T23:54:17.818Z,2.75
2023-02-24T23:56:48.124Z,2.95
2023-02-24T23:59:16.717Z,2.75
